Time;durP1;ratioP1;P1;durP2;ratioP2;P2;SDS_P1;SDS_P2;PMS_P1;PMS_P2;Temp;Humidity;BMP_temperature;BMP_pressure;BME280_temperature;BME280_humidity;BME280_pressure;Samples;Min_cycle;Max_cycle;Signal;HPM_P1;HPM_P2
2023/05/13 00:00:23;;;;;;;;;;;;;;;9.89;100.00;96395.59;5039180;28;19913;-68
2023/05/13 00:02:48;;;;;;;;;;;;;;;9.82;100.00;96401.75;5044472;28;19917;-68
2023/05/13 00:05:14;;;;;;;;;;;;;;;9.79;100.00;96388.81;5040452;28;19917;-68
2023/05/13 00:07:40;;;;;;;;;;;;;;;9.81;100.00;96393.91;5044343;28;19963;-69
2023/05/13 00:10:06;;;;;;;;;;;;;;;9.76;100.00;96389.56;5029664;28;20345;-69
2023/05/13 00:12:31;;;;;;;;;;;;;;;9.74;100.00;96400.88;5023114;28;20004;-69
2023/05/13 00:14:56;;;;;;;;;;;;;;;9.71;100.00;96395.34;5052941;28;19944;-69
2023/05/13 00:17:21;;;;;;;;;;;;;;;9.65;100.00;96391.31;5058331;28;19986;-69
2023/05/13 00:19:47;;;;;;;;;;;;;;;9.65;100.00;96394.88;5064312;28;19924;-70
2023/05/13 00:22:12;;;;;;;;;;;;;;;9.66;100.00;96392.91;5058658;28;19999;-69
2023/05/13 00:24:37;;;;;;;;;;;;;;;9.61;100.00;96401.44;5064065;28;20007;-69
2023/05/13 00:27:02;;;;;;;;;;;;;;;9.59;100.00;96388.13;5061138;28;19954;-66
2023/05/13 00:29:28;;;;;;;;;;;;;;;9.60;100.00;96388.91;5060218;28;20292;-69
2023/05/13 00:31:53;;;;;;;;;;;;;;;9.61;100.00;96387.75;5063827;28;20384;-69
2023/05/13 00:34:19;;;;;;;;;;;;;;;9.59;100.00;96392.81;5059302;28;19917;-69
2023/05/13 00:36:44;;;;;;;;;;;;;;;9.67;100.00;96394.47;5064107;28;20377;-68
2023/05/13 00:39:10;;;;;;;;;;;;;;;9.65;100.00;96394.88;5059892;28;20024;-69
2023/05/13 00:41:36;;;;;;;;;;;;;;;9.67;100.00;96394.47;5049236;28;19917;-68
2023/05/13 00:44:01;;;;;;;;;;;;;;;9.67;100.00;96394.47;5044334;28;19924;-69
2023/05/13 00:46:29;;;;;;;;;;;;;;;9.65;100.00;96394.06;5038587;28;19963;-68
2023/05/13 00:48:55;;;;;;;;;;;;;;;9.63;100.00;96390.91;5025674;28;20019;-69
2023/05/13 00:51:20;;;;;;;;;;;;;;;9.59;100.00;96393.59;5018341;28;20007;-68
2023/05/13 00:53:46;;;;;;;;;;;;;;;9.60;100.00;96397.09;5044341;28;19917;-68
2023/05/13 00:56:11;;;;;;;;;;;;;;;9.60;100.00;96402.56;5037239;28;20297;-69
2023/05/13 00:58:36;;;;;;;;;;;;;;;9.57;100.00;96393.94;5044181;28;19950;-68
2023/05/13 01:01:19;;;;;;;;;;;;;;;9.68;100.00;96393.34;5043337;28;20416;-68
2023/05/13 01:04:00;;;;;;;;;;;;;;;9.72;100.00;96392.25;5043726;28;20094;-68
2023/05/13 01:06:25;;;;;;;;;;;;;;;9.76;100.00;96397.75;5019785;28;20306;-67
2023/05/13 01:09:10;;;;;;;;;;;;;;;9.78;100.00;96403.66;5041586;28;19921;-68
2023/05/13 01:11:38;;;;;;;;;;;;;;;9.80;100.00;96398.59;5023966;28;20409;-67
2023/05/13 01:14:11;;;;;;;;;;;;;;;9.87;100.00;96403.38;5035427;28;20003;-69
2023/05/13 01:16:36;;;;;;;;;;;;;;;9.92;100.00;96401.13;5047771;28;19917;-68
2023/05/13 01:19:06;;;;;;;;;;;;;;;10.00;100.00;96396.53;5062553;28;20443;-68
2023/05/13 01:21:34;;;;;;;;;;;;;;;10.15;100.00;96402.97;5061744;28;19987;-68
2023/05/13 01:24:00;;;;;;;;;;;;;;;10.19;100.00;96400.28;5045059;28;20393;-68
2023/05/13 01:26:25;;;;;;;;;;;;;;;10.22;100.00;96394.06;5056398;28;19921;-68
2023/05/13 01:28:51;;;;;;;;;;;;;;;10.27;100.00;96401.97;5063451;28;19936;-68
2023/05/13 01:31:17;;;;;;;;;;;;;;;10.25;100.00;96394.13;5057734;28;19927;-68
2023/05/13 01:33:43;;;;;;;;;;;;;;;10.23;100.00;96398.41;5063170;28;19923;-67
2023/05/13 01:36:09;;;;;;;;;;;;;;;10.34;100.00;96393.88;5061543;28;19917;-67
2023/05/13 01:38:35;;;;;;;;;;;;;;;10.37;100.00;96400.53;5073210;28;19921;-68
2023/05/13 01:41:00;;;;;;;;;;;;;;;10.34;100.00;96402.09;5056654;28;19951;-68
2023/05/13 01:43:26;;;;;;;;;;;;;;;10.38;100.00;96396.66;5039568;28;19963;-68
2023/05/13 01:45:51;;;;;;;;;;;;;;;10.41;100.00;96398.66;5042475;28;19971;-67
2023/05/13 01:48:17;;;;;;;;;;;;;;;10.40;100.00;96403.31;5037438;28;19925;-69
2023/05/13 01:50:43;;;;;;;;;;;;;;;10.48;100.00;96398.75;5043350;28;19932;-67
2023/05/13 01:53:08;;;;;;;;;;;;;;;10.39;100.00;96398.22;5038188;28;19920;-68
2023/05/13 01:55:33;;;;;;;;;;;;;;;10.49;100.00;96409.28;5042651;28;19924;-67
2023/05/13 01:57:59;;;;;;;;;;;;;;;10.46;100.00;96403.78;5042574;28;20384;-68
2023/05/13 02:00:24;;;;;;;;;;;;;;;10.38;100.00;96400.19;5036315;28;19963;-68
2023/05/13 02:02:49;;;;;;;;;;;;;;;10.35;100.00;96411.84;5024860;28;19999;-67
2023/05/13 02:05:15;;;;;;;;;;;;;;;10.37;100.00;96403.28;5048925;28;20008;-67
2023/05/13 02:07:40;;;;;;;;;;;;;;;10.39;100.00;96409.97;5048034;28;19939;-68
2023/05/13 02:10:06;;;;;;;;;;;;;;;10.34;100.00;96407.56;5028818;28;19928;-68
2023/05/13 02:12:31;;;;;;;;;;;;;;;10.46;100.00;96410.06;5024152;28;19921;-68
2023/05/13 02:14:57;;;;;;;;;;;;;;;10.50;100.00;96402.66;5050711;28;20488;-68
2023/05/13 02:17:22;;;;;;;;;;;;;;;10.42;100.00;96409.22;5056260;28;20380;-68
2023/05/13 02:19:47;;;;;;;;;;;;;;;10.53;100.00;96409.34;5061398;28;19923;-68
2023/05/13 02:22:13;;;;;;;;;;;;;;;10.47;100.00;96411.63;5057566;28;19920;-69
2023/05/13 02:24:41;;;;;;;;;;;;;;;10.41;100.00;96410.38;5061669;28;20387;-68
2023/05/13 02:27:07;;;;;;;;;;;;;;;10.32;100.00;96407.94;5039079;28;19952;-68
2023/05/13 02:29:33;;;;;;;;;;;;;;;10.28;100.00;96415.28;5062007;28;20001;-68
2023/05/13 02:31:58;;;;;;;;;;;;;;;10.48;100.00;96406.97;5061869;28;19942;-68
2023/05/13 02:34:23;;;;;;;;;;;;;;;10.42;100.00;96405.69;5057054;28;20535;-67
2023/05/13 02:36:49;;;;;;;;;;;;;;;10.38;100.00;96411.13;5061752;28;20407;-67
2023/05/13 02:39:14;;;;;;;;;;;;;;;10.46;100.00;96409.25;5038697;28;19920;-67
2023/05/13 02:41:40;;;;;;;;;;;;;;;10.46;100.00;96415.53;5047046;28;20024;-67
2023/05/13 02:44:05;;;;;;;;;;;;;;;10.41;100.00;96412.34;5036640;28;19921;-66
2023/05/13 02:46:30;;;;;;;;;;;;;;;10.42;100.00;96417.41;5040178;28;20357;-67
2023/05/13 02:48:56;;;;;;;;;;;;;;;10.21;100.00;96404.25;5041396;28;20370;-67
2023/05/13 02:51:21;;;;;;;;;;;;;;;10.29;100.00;96405.13;5037407;28;19916;-67
2023/05/13 02:53:46;;;;;;;;;;;;;;;10.37;100.00;96417.78;5041999;28;19924;-67
2023/05/13 02:56:15;;;;;;;;;;;;;;;10.27;100.00;96408.22;5037029;28;19916;-67
2023/05/13 02:58:40;;;;;;;;;;;;;;;10.29;100.00;96416.06;5041675;28;19927;-67
2023/05/13 03:01:05;;;;;;;;;;;;;;;10.15;100.00;96408.44;5036515;28;19920;-68
2023/05/13 03:03:31;;;;;;;;;;;;;;;10.28;100.00;96414.47;5040887;28;19921;-68
2023/05/13 03:05:56;;;;;;;;;;;;;;;10.19;100.00;96408.50;5041218;28;19928;-68
2023/05/13 03:08:21;;;;;;;;;;;;;;;10.12;100.00;96406.47;5036261;28;19924;-68
2023/05/13 03:10:46;;;;;;;;;;;;;;;10.01;100.00;96413.72;5029753;28;19920;-69
2023/05/13 03:13:12;;;;;;;;;;;;;;;9.98;100.00;96407.06;5027761;28;20000;-67
2023/05/13 03:15:37;;;;;;;;;;;;;;;10.09;100.00;96415.41;5057293;28;20063;-70
2023/05/13 03:18:03;;;;;;;;;;;;;;;10.07;100.00;96417.75;5016127;28;19948;-68
2023/05/13 03:20:28;;;;;;;;;;;;;;;10.18;100.00;96415.16;5023748;28;20297;-69
2023/05/13 03:22:53;;;;;;;;;;;;;;;10.08;100.00;96428.31;5040215;28;20334;-69
2023/05/13 03:25:18;;;;;;;;;;;;;;;9.96;100.00;96423.06;5040142;28;19963;-70
2023/05/13 03:27:44;;;;;;;;;;;;;;;9.91;100.00;96418.69;5045134;28;19917;-69
2023/05/13 03:30:09;;;;;;;;;;;;;;;9.86;100.00;96426.41;5038796;28;20023;-69
2023/05/13 03:32:35;;;;;;;;;;;;;;;9.84;100.00;96426.78;5045362;28;19916;-69
2023/05/13 03:35:00;;;;;;;;;;;;;;;9.82;100.00;96431.06;5045163;28;19956;-69
2023/05/13 03:37:26;;;;;;;;;;;;;;;9.77;100.00;96422.00;5022822;28;20329;-69
2023/05/13 03:39:51;;;;;;;;;;;;;;;9.93;100.00;96430.03;5044627;28;19931;-69
2023/05/13 03:42:16;;;;;;;;;;;;;;;9.75;100.00;96429.00;5036074;28;19917;-70
2023/05/13 03:44:42;;;;;;;;;;;;;;;9.83;100.00;96432.63;5044519;28;20401;-68
2023/05/13 03:47:07;;;;;;;;;;;;;;;9.74;100.00;96424.66;5039856;28;19982;-69
2023/05/13 03:49:32;;;;;;;;;;;;;;;9.73;100.00;96432.09;5044688;28;19921;-69
2023/05/13 03:51:57;;;;;;;;;;;;;;;9.72;100.00;96427.78;5045007;28;20691;-69
2023/05/13 03:54:23;;;;;;;;;;;;;;;9.74;100.00;96428.22;5021263;28;20509;-69
2023/05/13 03:56:48;;;;;;;;;;;;;;;9.78;100.00;96422.81;5043960;28;19921;-69
2023/05/13 03:59:13;;;;;;;;;;;;;;;9.79;100.00;96421.63;5039738;28;19921;-69
2023/05/13 04:01:39;;;;;;;;;;;;;;;9.93;100.00;96427.31;5044301;28;19974;-69
2023/05/13 04:04:04;;;;;;;;;;;;;;;9.89;100.00;96433.91;5039846;28;19927;-69
2023/05/13 04:06:30;;;;;;;;;;;;;;;9.95;100.00;96427.72;5043870;28;20370;-69
2023/05/13 04:08:56;;;;;;;;;;;;;;;9.75;100.00;96434.47;5043468;28;19928;-69
2023/05/13 04:11:21;;;;;;;;;;;;;;;9.75;100.00;96432.50;5020346;28;20708;-69
2023/05/13 04:13:46;;;;;;;;;;;;;;;9.72;100.00;96436.00;5049171;28;19978;-68
2023/05/13 04:16:13;;;;;;;;;;;;;;;9.88;100.00;96443.25;5050602;28;20442;-69
2023/05/13 04:18:38;;;;;;;;;;;;;;;9.88;100.00;96438.56;5064614;28;20358;-69
2023/05/13 04:21:07;;;;;;;;;;;;;;;9.88;100.00;96441.28;5058009;28;19924;-69
2023/05/13 04:23:32;;;;;;;;;;;;;;;9.91;100.00;96443.31;5063544;28;20007;-69
2023/05/13 04:25:58;;;;;;;;;;;;;;;10.00;100.00;96447.72;5059426;28;20346;-69
2023/05/13 04:28:23;;;;;;;;;;;;;;;9.89;100.00;96450.31;5036459;28;20888;-69
2023/05/13 04:30:48;;;;;;;;;;;;;;;9.86;100.00;96454.56;5043671;28;19923;-69
2023/05/13 04:33:13;;;;;;;;;;;;;;;9.99;100.00;96440.66;5039917;28;19928;-69
2023/05/13 04:35:39;;;;;;;;;;;;;;;9.93;100.00;96460.13;5045021;28;19925;-69
2023/05/13 04:38:04;;;;;;;;;;;;;;;10.05;100.00;96456.41;5041486;28;19986;-69
2023/05/13 04:40:30;;;;;;;;;;;;;;;10.20;100.00;96457.38;5039650;28;19947;-69
2023/05/13 04:42:55;;;;;;;;;;;;;;;10.26;100.00;96455.13;5040883;28;19951;-68
2023/05/13 04:45:20;;;;;;;;;;;;;;;10.16;100.00;96462.03;5040083;28;19971;-69
2023/05/13 04:47:46;;;;;;;;;;;;;;;10.08;100.00;96474.03;5042469;28;19931;-70
2023/05/13 04:50:11;;;;;;;;;;;;;;;10.25;100.00;96472.72;5039602;28;20031;-68
2023/05/13 04:52:37;;;;;;;;;;;;;;;10.37;100.00;96475.28;5043364;28;20254;-69
2023/05/13 04:55:02;;;;;;;;;;;;;;;10.60;100.00;96477.88;5041404;28;19920;-66
2023/05/13 04:57:27;;;;;;;;;;;;;;;10.63;100.00;96481.84;5040996;28;19928;-69
2023/05/13 04:59:52;;;;;;;;;;;;;;;10.83;100.00;96485.22;5043664;28;20003;-69
2023/05/13 05:02:18;;;;;;;;;;;;;;;10.69;100.00;96481.13;5038809;28;19917;-68
2023/05/13 05:04:43;;;;;;;;;;;;;;;10.89;100.00;96490.00;5041777;28;19924;-69
2023/05/13 05:07:08;;;;;;;;;;;;;;;10.91;100.00;96489.59;5038228;28;19924;-69
2023/05/13 05:09:34;;;;;;;;;;;;;;;11.04;100.00;96501.13;5039396;28;20012;-69
2023/05/13 05:11:59;;;;;;;;;;;;;;;10.88;100.00;96495.84;5024284;28;19929;-69
2023/05/13 05:14:25;;;;;;;;;;;;;;;11.05;100.00;96505.44;5026667;28;20013;-68
2023/05/13 05:16:50;;;;;;;;;;;;;;;10.71;100.00;96506.22;5077345;28;19924;-69
2023/05/13 05:19:15;;;;;;;;;;;;;;;10.86;100.00;96503.66;5069140;28;19917;-69
2023/05/13 05:21:41;;;;;;;;;;;;;;;10.42;100.00;96496.81;5029112;28;19923;-69
2023/05/13 05:24:06;;;;;;;;;;;;;;;10.22;100.00;96506.28;5057852;28;19917;-68
2023/05/13 05:26:31;;;;;;;;;;;;;;;10.36;100.00;96506.53;5062693;28;19947;-68
2023/05/13 05:28:57;;;;;;;;;;;;;;;10.38;100.00;96509.69;5063454;28;19921;-69
2023/05/13 05:31:22;;;;;;;;;;;;;;;10.58;100.00;96510.34;5057297;28;20491;-68
2023/05/13 05:33:47;;;;;;;;;;;;;;;10.40;100.00;96512.84;5062109;28;19916;-69
2023/05/13 05:36:13;;;;;;;;;;;;;;;10.49;100.00;96507.09;5057893;28;19916;-69
2023/05/13 05:38:38;;;;;;;;;;;;;;;10.36;100.00;96516.69;5062190;28;19916;-69
2023/05/13 05:41:03;;;;;;;;;;;;;;;10.35;100.00;96521.38;5058685;28;19916;-68
2023/05/13 05:43:29;;;;;;;;;;;;;;;10.40;100.00;96514.78;5040520;28;19924;-68
2023/05/13 05:45:54;;;;;;;;;;;;;;;10.42;100.00;96516.00;5070701;28;19920;-69
2023/05/13 05:48:20;;;;;;;;;;;;;;;10.47;100.00;96525.84;5020175;28;19975;-68
2023/05/13 05:50:45;;;;;;;;;;;;;;;10.49;100.00;96521.56;5043443;28;19952;-67
2023/05/13 05:53:10;;;;;;;;;;;;;;;10.41;100.00;96516.38;5037738;28;19917;-67
2023/05/13 05:55:35;;;;;;;;;;;;;;;10.64;100.00;96519.00;5025331;28;19951;-68
2023/05/13 05:58:05;;;;;;;;;;;;;;;10.69;100.00;96516.75;5041844;28;19917;-67
2023/05/13 06:00:31;;;;;;;;;;;;;;;10.99;100.00;96523.38;5041444;28;20587;-68
2023/05/13 06:02:56;;;;;;;;;;;;;;;10.93;100.00;96525.66;5043482;28;19920;-67
2023/05/13 06:05:22;;;;;;;;;;;;;;;10.99;100.00;96534.34;5039034;28;19925;-67
2023/05/13 06:07:47;;;;;;;;;;;;;;;11.32;100.00;96530.00;5042198;28;19924;-68
2023/05/13 06:10:12;;;;;;;;;;;;;;;11.62;100.00;96535.41;5027986;28;19948;-67
2023/05/13 06:12:39;;;;;;;;;;;;;;;11.81;100.00;96535.19;5022893;28;20023;-69
2023/05/13 06:15:09;;;;;;;;;;;;;;;11.72;100.00;96536.66;5031594;28;19923;-66
2023/05/13 06:17:34;;;;;;;;;;;;;;;11.83;100.00;96541.09;5045517;28;20293;-69
2023/05/13 06:20:00;;;;;;;;;;;;;;;11.66;100.00;96542.50;5061983;28;19931;-69
2023/05/13 06:22:25;;;;;;;;;;;;;;;11.45;100.00;96542.28;5057550;28;19916;-69
2023/05/13 06:24:50;;;;;;;;;;;;;;;11.69;100.00;96534.69;5062209;28;19923;-69
2023/05/13 06:27:16;;;;;;;;;;;;;;;11.78;100.00;96535.94;5056930;28;19963;-69
2023/05/13 06:29:41;;;;;;;;;;;;;;;11.74;100.00;96543.38;5061889;28;20069;-69
2023/05/13 06:32:07;;;;;;;;;;;;;;;11.12;100.00;96545.84;5058193;28;19921;-67
2023/05/13 06:34:32;;;;;;;;;;;;;;;11.16;100.00;96538.44;5062072;28;20350;-69
2023/05/13 06:36:57;;;;;;;;;;;;;;;11.36;100.00;96537.13;5062879;28;20370;-68
2023/05/13 06:39:22;;;;;;;;;;;;;;;11.66;100.00;96536.22;5057332;28;20362;-68
2023/05/13 06:41:48;;;;;;;;;;;;;;;10.97;100.00;96542.16;5062200;28;19916;-68
2023/05/13 06:44:13;;;;;;;;;;;;;;;11.55;100.00;96540.81;5056349;28;20006;-67
2023/05/13 06:46:38;;;;;;;;;;;;;;;11.79;100.00;96537.53;5043988;28;19924;-67
2023/05/13 06:49:04;;;;;;;;;;;;;;;12.11;100.00;96539.00;5017945;28;20392;-67
2023/05/13 06:51:31;;;;;;;;;;;;;;;12.21;100.00;96546.53;5031268;28;20029;-69
2023/05/13 06:53:56;;;;;;;;;;;;;;;12.20;100.00;96553.97;5041507;28;19966;-68
2023/05/13 06:56:22;;;;;;;;;;;;;;;12.27;100.00;96547.75;5033716;28;20390;-68
2023/05/13 06:58:48;;;;;;;;;;;;;;;11.61;100.00;96550.28;5041053;28;19917;-68
2023/05/13 07:01:15;;;;;;;;;;;;;;;11.57;100.00;96546.72;5035722;28;20369;-68
2023/05/13 07:03:40;;;;;;;;;;;;;;;12.15;100.00;96550.78;5041544;28;19921;-69
2023/05/13 07:06:05;;;;;;;;;;;;;;;11.88;100.00;96561.91;5033744;28;19924;-69
2023/05/13 07:08:30;;;;;;;;;;;;;;;11.52;100.00;96558.81;5041327;28;19920;-68
2023/05/13 07:10:56;;;;;;;;;;;;;;;11.14;100.00;96551.75;5025703;28;19917;-68
2023/05/13 07:13:21;;;;;;;;;;;;;;;11.21;100.00;96562.78;5016337;28;20146;-68
2023/05/13 07:15:46;;;;;;;;;;;;;;;11.84;100.00;96550.09;5036629;28;19917;-69
2023/05/13 07:18:12;;;;;;;;;;;;;;;12.20;100.00;96555.91;5048097;28;20011;-69
2023/05/13 07:20:37;;;;;;;;;;;;;;;11.89;100.00;96565.44;5061859;28;20003;-69
2023/05/13 07:23:02;;;;;;;;;;;;;;;12.14;100.00;96552.75;5059554;28;19920;-69
2023/05/13 07:25:28;;;;;;;;;;;;;;;12.13;100.00;96556.66;5040824;28;20383;-69
2023/05/13 07:27:53;;;;;;;;;;;;;;;11.66;100.00;96552.69;5060342;28;19920;-68
2023/05/13 07:30:18;;;;;;;;;;;;;;;11.47;100.00;96559.16;5056541;28;19924;-69
2023/05/13 07:32:43;;;;;;;;;;;;;;;11.85;100.00;96547.00;5061552;28;19962;-69
2023/05/13 07:35:09;;;;;;;;;;;;;;;11.40;100.00;96556.34;5038522;28;20556;-69
2023/05/13 07:37:35;;;;;;;;;;;;;;;11.26;100.00;96556.97;5061025;28;19969;-68
2023/05/13 07:40:01;;;;;;;;;;;;;;;12.07;100.00;96560.16;5059876;28;19920;-69
2023/05/13 07:42:28;;;;;;;;;;;;;;;12.56;100.00;96559.69;5054388;28;19917;-68
2023/05/13 07:44:54;;;;;;;;;;;;;;;12.66;100.00;96560.94;5061709;28;19917;-68
2023/05/13 07:47:19;;;;;;;;;;;;;;;12.88;100.00;96564.59;5055431;28;19928;-67
2023/05/13 07:49:45;;;;;;;;;;;;;;;12.67;100.00;96558.97;5026182;28;19921;-68
2023/05/13 07:52:10;;;;;;;;;;;;;;;12.68;100.00;96560.56;5040709;28;19920;-68
2023/05/13 07:54:35;;;;;;;;;;;;;;;12.95;100.00;96567.38;5040459;28;20400;-68
2023/05/13 07:57:02;;;;;;;;;;;;;;;12.80;100.00;96568.47;5042390;28;19971;-68
2023/05/13 07:59:28;;;;;;;;;;;;;;;13.05;100.00;96567.81;5024102;28;19916;-68
2023/05/13 08:01:53;;;;;;;;;;;;;;;12.64;100.00;96571.53;5044529;28;19917;-68
2023/05/13 08:04:18;;;;;;;;;;;;;;;12.00;100.00;96569.88;5039839;28;19917;-67
2023/05/13 08:06:43;;;;;;;;;;;;;;;12.06;100.00;96573.06;5044107;28;19916;-69
2023/05/13 08:09:11;;;;;;;;;;;;;;;12.51;100.00;96579.28;5037512;28;20354;-69
2023/05/13 08:11:36;;;;;;;;;;;;;;;12.57;100.00;96579.75;5038813;28;19957;-69
2023/05/13 08:14:01;;;;;;;;;;;;;;;12.31;100.00;96578.75;5024876;28;19960;-69
2023/05/13 08:16:27;;;;;;;;;;;;;;;12.58;100.00;96584.03;5044685;28;19924;-69
2023/05/13 08:18:52;;;;;;;;;;;;;;;11.66;100.00;96575.41;5059355;28;19927;-69
2023/05/13 08:21:17;;;;;;;;;;;;;;;11.95;100.00;96577.69;5060786;28;19921;-69
2023/05/13 08:23:43;;;;;;;;;;;;;;;11.74;100.00;96579.03;5065052;28;19973;-69
2023/05/13 08:26:08;;;;;;;;;;;;;;;12.05;100.00;96585.22;5059620;28;20312;-67
2023/05/13 08:28:33;;;;;;;;;;;;;;;11.91;100.00;96583.13;5064856;28;19921;-69
2023/05/13 08:31:01;;;;;;;;;;;;;;;12.35;100.00;96584.28;5045666;28;19920;-68
2023/05/13 08:33:28;;;;;;;;;;;;;;;12.13;100.00;96580.56;5060428;28;19954;-69
2023/05/13 08:35:53;;;;;;;;;;;;;;;11.79;100.00;96578.69;5063325;28;20439;-69
2023/05/13 08:38:18;;;;;;;;;;;;;;;12.23;100.00;96583.41;5057744;28;19920;-69
2023/05/13 08:40:44;;;;;;;;;;;;;;;12.86;100.00;96580.69;5045905;28;19931;-69
2023/05/13 08:43:10;;;;;;;;;;;;;;;12.40;100.00;96583.91;5058948;28;19926;-69
2023/05/13 08:45:37;;;;;;;;;;;;;;;13.04;100.00;96580.78;5064606;28;20458;-69
2023/05/13 08:48:02;;;;;;;;;;;;;;;13.25;99.92;96590.28;5062668;28;19946;-69
2023/05/13 08:50:28;;;;;;;;;;;;;;;11.93;100.00;96591.00;5060547;28;20274;-68
2023/05/13 08:52:54;;;;;;;;;;;;;;;12.35;100.00;96587.03;5044154;28;20011;-69
2023/05/13 08:55:20;;;;;;;;;;;;;;;12.15;100.00;96592.75;5032701;28;19921;-68
2023/05/13 08:57:45;;;;;;;;;;;;;;;12.32;100.00;96599.56;5060800;28;19946;-68
2023/05/13 09:00:11;;;;;;;;;;;;;;;11.97;100.00;96600.81;5044764;28;19954;-67
2023/05/13 09:02:36;;;;;;;;;;;;;;;11.52;100.00;96599.94;5043760;28;19917;-68
2023/05/13 09:05:08;;;;;;;;;;;;;;;12.00;100.00;96604.78;5041421;28;20384;-68
2023/05/13 09:07:34;;;;;;;;;;;;;;;12.57;100.00;96601.72;5041550;28;20015;-68
2023/05/13 09:09:59;;;;;;;;;;;;;;;12.81;100.00;96611.28;5034946;28;20031;-68
2023/05/13 09:12:43;;;;;;;;;;;;;;;11.63;100.00;96614.59;5018354;28;20016;-68
2023/05/13 09:15:12;;;;;;;;;;;;;;;12.48;100.00;96606.72;5024215;28;19949;-68
2023/05/13 09:17:42;;;;;;;;;;;;;;;11.99;100.00;96612.22;5054258;28;19916;-69
2023/05/13 09:20:09;;;;;;;;;;;;;;;11.99;100.00;96609.50;5037803;28;19921;-68
2023/05/13 09:22:35;;;;;;;;;;;;;;;12.43;100.00;96605.91;5075661;28;19916;-67
2023/05/13 09:25:00;;;;;;;;;;;;;;;12.48;100.00;96613.03;5078271;28;19927;-68
2023/05/13 09:27:36;;;;;;;;;;;;;;;13.09;100.00;96615.34;5058797;28;19920;-67
2023/05/13 09:30:01;;;;;;;;;;;;;;;13.20;99.93;96614.25;5062901;28;19921;-68
2023/05/13 09:32:26;;;;;;;;;;;;;;;12.63;100.00;96606.44;5058611;28;19920;-68
2023/05/13 09:34:52;;;;;;;;;;;;;;;12.80;100.00;96607.75;5063180;28;19917;-69
2023/05/13 09:37:17;;;;;;;;;;;;;;;12.14;100.00;96604.13;5057510;28;20262;-69
2023/05/13 09:39:43;;;;;;;;;;;;;;;11.77;100.00;96605.69;5063017;28;19917;-67
2023/05/13 09:42:15;;;;;;;;;;;;;;;12.09;100.00;96607.22;5057016;28;19917;-68
2023/05/13 09:44:41;;;;;;;;;;;;;;;11.96;100.00;96606.72;5061822;28;19920;-68
2023/05/13 09:47:10;;;;;;;;;;;;;;;12.79;100.00;96608.91;5056813;28;19920;-68
2023/05/13 09:49:36;;;;;;;;;;;;;;;12.81;100.00;96600.28;5061941;28;19920;-68
2023/05/13 09:52:01;;;;;;;;;;;;;;;12.54;100.00;96606.00;5055637;28;19970;-68
2023/05/13 09:54:32;;;;;;;;;;;;;;;11.69;100.00;96614.25;5020667;28;19924;-68
2023/05/13 09:57:00;;;;;;;;;;;;;;;11.61;100.00;96614.19;5042355;28;19917;-68
2023/05/13 09:59:25;;;;;;;;;;;;;;;11.85;100.00;96612.06;5038057;28;20247;-67
2023/05/13 10:01:52;;;;;;;;;;;;;;;11.75;100.00;96619.00;5042704;28;19923;-69
2023/05/13 10:04:17;;;;;;;;;;;;;;;12.14;100.00;96617.84;5037164;28;19916;-69
2023/05/13 10:06:44;;;;;;;;;;;;;;;11.92;100.00;96614.91;5040108;28;19966;-68
2023/05/13 10:09:10;;;;;;;;;;;;;;;12.06;100.00;96619.72;5035447;28;19925;-68
2023/05/13 10:11:35;;;;;;;;;;;;;;;12.07;100.00;96617.78;5022240;28;20393;-68
2023/05/13 10:14:03;;;;;;;;;;;;;;;12.53;100.00;96618.19;5023349;28;19921;-68
2023/05/13 10:16:30;;;;;;;;;;;;;;;13.42;100.00;96614.38;5031205;28;20030;-69
2023/05/13 10:18:56;;;;;;;;;;;;;;;13.30;100.00;96622.94;5039602;28;19916;-69
2023/05/13 10:21:21;;;;;;;;;;;;;;;12.88;100.00;96618.78;5056840;28;20723;-68
2023/05/13 10:23:50;;;;;;;;;;;;;;;12.50;100.00;96618.94;5062009;28;19923;-69
2023/05/13 10:26:16;;;;;;;;;;;;;;;12.51;100.00;96614.22;5039649;28;19917;-69
2023/05/13 10:28:41;;;;;;;;;;;;;;;12.60;100.00;96614.66;5061500;28;19917;-69
2023/05/13 10:31:07;;;;;;;;;;;;;;;13.68;99.95;96616.00;5056653;28;19923;-69
2023/05/13 10:33:32;;;;;;;;;;;;;;;12.96;100.00;96615.69;5060570;28;19923;-68
2023/05/13 10:36:06;;;;;;;;;;;;;;;12.63;100.00;96620.19;5061641;28;19916;-69
2023/05/13 10:38:43;;;;;;;;;;;;;;;12.36;100.00;96616.84;5060709;28;19917;-68
2023/05/13 10:41:21;;;;;;;;;;;;;;;12.50;100.00;96618.16;5042333;28;19920;-68
2023/05/13 10:43:55;;;;;;;;;;;;;;;13.20;100.00;96616.22;5040976;28;19920;-68
2023/05/13 10:46:20;;;;;;;;;;;;;;;12.80;100.00;96618.75;5017730;28;19982;-69
2023/05/13 10:48:50;;;;;;;;;;;;;;;13.47;100.00;96626.94;5041892;28;20389;-69
2023/05/13 10:51:16;;;;;;;;;;;;;;;13.05;100.00;96614.56;5017886;28;19917;-69
2023/05/13 10:53:48;;;;;;;;;;;;;;;14.11;96.04;96616.09;5040541;28;19920;-70
2023/05/13 10:56:14;;;;;;;;;;;;;;;14.11;93.71;96627.09;5019216;28;20054;-68
2023/05/13 10:58:40;;;;;;;;;;;;;;;13.41;96.57;96617.50;5048768;28;20425;-69
2023/05/13 11:01:16;;;;;;;;;;;;;;;14.48;93.13;96622.44;5044485;28;20016;-69
2023/05/13 11:03:50;;;;;;;;;;;;;;;14.27;94.36;96623.19;5041499;28;20682;-68
2023/05/13 11:06:17;;;;;;;;;;;;;;;14.37;91.17;96619.66;5036791;28;19924;-69
2023/05/13 11:08:43;;;;;;;;;;;;;;;13.87;95.17;96625.91;5042565;28;19924;-69
2023/05/13 11:11:28;;;;;;;;;;;;;;;14.16;93.52;96620.44;5020496;28;20020;-69
2023/05/13 11:14:15;;;;;;;;;;;;;;;13.55;97.38;96623.84;5021636;28;19921;-69
2023/05/13 11:16:53;;;;;;;;;;;;;;;13.46;96.96;96623.41;5045451;28;19924;-69
2023/05/13 11:19:24;;;;;;;;;;;;;;;13.36;98.74;96618.66;5034250;28;19921;-68
2023/05/13 11:21:51;;;;;;;;;;;;;;;13.66;96.81;96618.38;5023146;28;19940;-68
2023/05/13 11:24:17;;;;;;;;;;;;;;;12.92;100.00;96627.84;5034109;28;19936;-69
2023/05/13 11:26:46;;;;;;;;;;;;;;;12.80;100.00;96621.50;5041447;28;20289;-68
2023/05/13 11:29:11;;;;;;;;;;;;;;;12.90;100.00;96617.22;5016123;28;19921;-67
2023/05/13 11:31:46;;;;;;;;;;;;;;;12.41;100.00;96612.97;5024048;28;19944;-69
2023/05/13 11:34:15;;;;;;;;;;;;;;;13.25;100.00;96615.81;5021192;28;19917;-67
2023/05/13 11:36:43;;;;;;;;;;;;;;;13.10;100.00;96619.69;5007450;28;19928;-67
2023/05/13 11:39:15;;;;;;;;;;;;;;;13.85;99.58;96625.50;5020859;28;19924;-67
2023/05/13 11:41:45;;;;;;;;;;;;;;;13.50;99.30;96613.19;5025324;28;19921;-67
2023/05/13 11:44:11;;;;;;;;;;;;;;;12.98;100.00;96618.03;5020711;28;19928;-67
2023/05/13 11:46:36;;;;;;;;;;;;;;;12.36;100.00;96618.81;5025271;28;20374;-66
2023/05/13 11:49:02;;;;;;;;;;;;;;;12.23;100.00;96616.34;5006117;28;19928;-72
2023/05/13 11:51:27;;;;;;;;;;;;;;;12.41;100.00;96613.75;5021967;28;19986;-67
2023/05/13 11:54:00;;;;;;;;;;;;;;;12.23;100.00;96621.84;5025785;28;19963;-67
2023/05/13 11:56:26;;;;;;;;;;;;;;;12.37;100.00;96617.63;5022483;28;20297;-67
2023/05/13 11:58:52;;;;;;;;;;;;;;;12.76;100.00;96617.13;5042400;28;19924;-67
2023/05/13 12:01:17;;;;;;;;;;;;;;;12.63;100.00;96622.94;5039057;28;19917;-67
2023/05/13 12:03:43;;;;;;;;;;;;;;;12.62;100.00;96626.88;5044553;28;20285;-66
2023/05/13 12:06:08;;;;;;;;;;;;;;;12.39;100.00;96615.31;5040358;28;20289;-68
2023/05/13 12:08:34;;;;;;;;;;;;;;;12.65;100.00;96627.28;5026624;28;19917;-67
2023/05/13 12:10:59;;;;;;;;;;;;;;;12.58;100.00;96620.53;5028056;28;19921;-67
2023/05/13 12:13:24;;;;;;;;;;;;;;;13.41;100.00;96626.53;5019486;28;19924;-69
2023/05/13 12:15:50;;;;;;;;;;;;;;;14.20;98.66;96635.00;5039275;28;19939;-67
2023/05/13 12:18:16;;;;;;;;;;;;;;;14.86;94.21;96631.06;5047831;28;19920;-68
2023/05/13 12:20:41;;;;;;;;;;;;;;;14.03;94.61;96630.25;5063520;28;20313;-68
2023/05/13 12:23:10;;;;;;;;;;;;;;;13.27;100.00;96637.44;5041023;28;19916;-67
2023/05/13 12:25:45;;;;;;;;;;;;;;;13.74;99.76;96628.22;5063741;28;19970;-67
2023/05/13 12:28:24;;;;;;;;;;;;;;;14.74;94.25;96637.78;5060356;28;20772;-66
2023/05/13 12:30:59;;;;;;;;;;;;;;;14.12;96.78;96636.97;5064605;28;19965;-69
2023/05/13 12:33:26;;;;;;;;;;;;;;;12.85;100.00;96638.78;5046545;28;19984;-67
2023/05/13 12:35:52;;;;;;;;;;;;;;;13.31;100.00;96632.78;5086213;28;19996;-68